Time;durP1;ratioP1;P1;durP2;ratioP2;P2;SDS_P1;SDS_P2;PMS_P1;PMS_P2;Temp;Humidity;BMP_temperature;BMP_pressure;BME280_temperature;BME280_humidity;BME280_pressure;Samples;Min_cycle;Max_cycle;Signal;HPM_P1;HPM_P2
2022/05/18 00:04:04;;;;;;;6.20;3.97;;;22.40;54.30;;;;;;4921263;28;20262;-43
2022/05/18 00:06:29;;;;;;;3.87;3.57;;;22.50;53.90;;;;;;5071221;28;20216;-47
2022/05/18 00:08:55;;;;;;;4.33;3.87;;;22.50;53.80;;;;;;5071660;28;20539;-43
2022/05/18 00:11:21;;;;;;;5.63;3.63;;;22.60;53.70;;;;;;5069444;28;20215;-44
2022/05/18 00:13:48;;;;;;;3.97;3.60;;;22.70;53.50;;;;;;5071494;28;20545;-42
2022/05/18 00:16:15;;;;;;;10.03;3.63;;;22.80;53.30;;;;;;5070823;28;20642;-44
2022/05/18 00:18:41;;;;;;;4.60;3.70;;;22.90;53.10;;;;;;5071614;28;20429;-42
2022/05/18 00:21:08;;;;;;;5.90;3.50;;;22.80;52.90;;;;;;5070969;28;20430;-47
2022/05/18 00:23:33;;;;;;;5.77;3.57;;;22.80;52.90;;;;;;5069799;28;20448;-44
2022/05/18 00:26:00;;;;;;;3.97;3.53;;;22.80;52.90;;;;;;5070566;28;20426;-43
2022/05/18 00:28:25;;;;;;;4.70;3.20;;;22.90;52.70;;;;;;5071180;28;20292;-43
2022/05/18 00:30:52;;;;;;;4.17;3.77;;;22.90;52.60;;;;;;5070671;28;20576;-44
2022/05/18 00:33:18;;;;;;;5.07;3.30;;;22.90;52.60;;;;;;5071549;28;20390;-42
2022/05/18 00:35:44;;;;;;;5.20;4.53;;;22.90;52.60;;;;;;5070634;28;20440;-42
2022/05/18 00:38:10;;;;;;;4.10;3.70;;;22.80;52.50;;;;;;5069382;28;20892;-42
2022/05/18 00:40:39;;;;;;;5.20;3.97;;;22.80;52.60;;;;;;5070310;28;20257;-43
2022/05/18 00:43:05;;;;;;;5.60;3.93;;;22.80;52.60;;;;;;5071189;28;20442;-42
2022/05/18 00:45:30;;;;;;;3.90;3.60;;;22.50;53.30;;;;;;5070305;28;20440;-43
2022/05/18 00:47:56;;;;;;;5.33;4.20;;;22.50;53.40;;;;;;5070026;28;20207;-42
2022/05/18 00:50:28;;;;;;;4.53;3.73;;;22.50;53.40;;;;;;5070106;28;20206;-44
2022/05/18 00:53:03;;;;;;;3.87;3.57;;;22.50;53.60;;;;;;5070793;28;20219;-42
2022/05/18 00:55:33;;;;;;;4.60;4.20;;;22.50;53.50;;;;;;5069848;28;20434;-43
2022/05/18 00:58:14;;;;;;;4.67;4.27;;;22.40;53.80;;;;;;5070898;28;20467;-45
2022/05/18 01:00:40;;;;;;;4.57;4.17;;;22.10;54.50;;;;;;5069965;28;20445;-42
2022/05/18 01:03:29;;;;;;;6.00;3.67;;;22.10;54.60;;;;;;5070372;28;20466;-45
2022/05/18 01:06:11;;;;;;;7.17;3.77;;;22.10;54.50;;;;;;5068728;28;20437;-43
2022/05/18 01:08:47;;;;;;;5.27;4.60;;;22.00;54.70;;;;;;5070647;28;20430;-42
2022/05/18 01:11:13;;;;;;;6.20;3.97;;;22.00;54.60;;;;;;5070137;28;20438;-42
2022/05/18 01:13:39;;;;;;;4.53;3.90;;;22.00;54.50;;;;;;5070317;28;20478;-42
2022/05/18 01:16:05;;;;;;;3.93;3.30;;;22.00;55.10;;;;;;5069486;28;20196;-42
2022/05/18 01:18:30;;;;;;;7.70;5.30;;;22.00;54.60;;;;;;5070129;28;20452;-42
2022/05/18 01:20:56;;;;;;;5.13;4.23;;;21.90;55.40;;;;;;5068689;28;20422;-42
2022/05/18 01:23:51;;;;;;;4.90;4.10;;;21.90;54.70;;;;;;5070261;28;20596;-42
2022/05/18 01:26:41;;;;;;;6.20;4.10;;;22.00;54.60;;;;;;5069878;28;20281;-43
2022/05/18 01:29:06;;;;;;;6.00;4.50;;;22.00;54.30;;;;;;5070263;28;20434;-42
2022/05/18 01:31:50;;;;;;;4.67;3.33;;;22.00;54.30;;;;;;5067971;28;20419;-46
2022/05/18 01:34:19;;;;;;;5.97;4.30;;;22.00;54.30;;;;;;5070025;28;20203;-43
2022/05/18 01:36:45;;;;;;;4.20;3.80;;;22.00;54.30;;;;;;5069573;28;20454;-45
2022/05/18 01:39:27;;;;;;;4.30;4.00;;;22.00;54.30;;;;;;5070549;28;20898;-43
2022/05/18 01:42:07;;;;;;;3.97;3.57;;;21.90;54.50;;;;;;5069558;28;20445;-43
2022/05/18 01:44:38;;;;;;;5.60;3.70;;;21.90;54.40;;;;;;5069861;28;20433;-45
2022/05/18 01:47:04;;;;;;;5.47;3.37;;;21.90;54.30;;;;;;5069450;28;20449;-45
2022/05/18 01:49:30;;;;;;;13.90;4.47;;;21.90;54.20;;;;;;5069992;28;20418;-46
2022/05/18 01:51:57;;;;;;;4.87;4.23;;;21.90;54.20;;;;;;5069472;28;20260;-42
2022/05/18 01:54:24;;;;;;;4.73;4.20;;;21.90;54.10;;;;;;5069669;28;20435;-43
2022/05/18 01:56:50;;;;;;;5.40;3.77;;;21.90;54.10;;;;;;5069836;28;20433;-42
2022/05/18 01:59:16;;;;;;;5.97;3.90;;;21.90;54.20;;;;;;5068248;28;20419;-42
2022/05/18 02:01:44;;;;;;;6.70;4.23;;;21.80;54.20;;;;;;5069682;28;20239;-44
2022/05/18 02:04:10;;;;;;;4.17;3.70;;;21.80;54.10;;;;;;5055749;28;20488;-42
2022/05/18 02:06:36;;;;;;;6.20;3.70;;;21.80;54.10;;;;;;5069395;28;20426;-43
2022/05/18 02:09:04;;;;;;;4.33;4.03;;;21.80;54.10;;;;;;5070059;28;20430;-45
2022/05/18 02:11:33;;;;;;;7.43;3.90;;;21.70;54.00;;;;;;5069237;28;20460;-45
2022/05/18 02:13:59;;;;;;;4.50;4.10;;;21.70;54.10;;;;;;5069393;28;20427;-42
2022/05/18 02:16:24;;;;;;;5.40;3.73;;;21.70;54.10;;;;;;5069147;28;20426;-43
2022/05/18 02:18:50;;;;;;;3.70;3.40;;;21.70;54.20;;;;;;5069835;28;20207;-43
2022/05/18 02:21:16;;;;;;;4.87;4.57;;;21.60;54.20;;;;;;5069503;28;20203;-42
2022/05/18 02:23:42;;;;;;;5.10;4.53;;;21.60;54.50;;;;;;5069381;28;20192;-43
2022/05/18 02:26:14;;;;;;;4.33;3.77;;;21.40;55.10;;;;;;5067499;28;20942;-42
2022/05/18 02:28:41;;;;;;;5.43;4.10;;;21.30;55.50;;;;;;5069892;28;20875;-42
2022/05/18 02:31:07;;;;;;;5.10;4.07;;;21.30;55.50;;;;;;5069092;28;20921;-43
2022/05/18 02:33:33;;;;;;;4.40;4.10;;;21.30;55.60;;;;;;5069506;28;20485;-46
2022/05/18 02:35:59;;;;;;;4.17;3.83;;;21.20;55.90;;;;;;5068330;28;20826;-43
2022/05/18 02:38:24;;;;;;;4.43;4.03;;;21.10;56.10;;;;;;5069661;28;20200;-43
2022/05/18 02:40:50;;;;;;;5.37;4.20;;;21.10;56.20;;;;;;5069013;28;20480;-44
2022/05/18 02:43:16;;;;;;;4.90;4.50;;;21.20;56.00;;;;;;5069765;28;20270;-43
2022/05/18 02:45:41;;;;;;;5.00;4.47;;;21.20;55.80;;;;;;5068603;28;20203;-42
2022/05/18 02:48:07;;;;;;;6.13;5.40;;;21.20;55.80;;;;;;5069463;28;20652;-42
2022/05/18 02:50:33;;;;;;;5.73;4.10;;;21.10;56.10;;;;;;5068801;28;20608;-43
2022/05/18 02:52:59;;;;;;;4.43;4.00;;;21.00;56.30;;;;;;5067656;28;20520;-42
2022/05/18 02:58:09;;;;;;;4.30;3.80;;;21.00;56.10;;;;;;5069644;28;20477;-43
2022/05/18 03:00:35;;;;;;;4.70;4.30;;;21.00;55.90;;;;;;5068754;28;20798;-42
2022/05/18 03:03:01;;;;;;;5.07;4.67;;;21.00;55.90;;;;;;5060125;28;20244;-42
2022/05/18 03:05:26;;;;;;;3.73;3.50;;;21.10;55.90;;;;;;5064403;28;21698;-43
2022/05/18 03:07:52;;;;;;;4.40;4.10;;;21.00;56.10;;;;;;5069414;28;20659;-42
2022/05/18 03:10:18;;;;;;;5.23;4.60;;;20.90;56.30;;;;;;5068935;28;20217;-42
2022/05/18 03:12:44;;;;;;;5.23;4.73;;;20.90;56.30;;;;;;5071977;28;20227;-42
2022/05/18 03:15:11;;;;;;;4.73;3.90;;;20.80;56.70;;;;;;5071802;28;20500;-42
2022/05/18 03:17:37;;;;;;;4.77;4.23;;;20.70;56.90;;;;;;5072800;28;20480;-42
2022/05/18 03:20:03;;;;;;;5.83;4.50;;;20.80;56.80;;;;;;5070619;28;20450;-46
2022/05/18 03:25:13;;;;;;;5.67;5.17;;;20.80;56.40;;;;;;5071737;28;21345;-44
2022/05/18 03:27:41;;;;;;;5.47;3.77;;;20.90;56.30;;;;;;5072577;28;20430;-45
2022/05/18 03:30:07;;;;;;;6.77;5.00;;;20.90;56.20;;;;;;5071823;28;20505;-42
2022/05/18 03:32:33;;;;;;;5.20;4.70;;;20.90;56.20;;;;;;5072119;28;20489;-42
2022/05/18 03:34:58;;;;;;;4.60;4.30;;;20.90;55.70;;;;;;5071335;28;20426;-44
2022/05/18 03:37:24;;;;;;;5.43;4.93;;;20.90;55.60;;;;;;5072435;28;20183;-42
2022/05/18 03:39:50;;;;;;;7.97;4.90;;;20.90;55.50;;;;;;5072163;28;20199;-43
2022/05/18 03:42:15;;;;;;;4.23;3.83;;;20.90;55.40;;;;;;5072101;28;20199;-43
2022/05/18 03:44:41;;;;;;;5.30;4.60;;;20.80;55.30;;;;;;5072138;28;20188;-44
2022/05/18 03:47:07;;;;;;;5.50;4.90;;;20.80;55.40;;;;;;5068806;28;20246;-44
2022/05/18 03:49:32;;;;;;;4.27;3.97;;;20.80;55.60;;;;;;5072265;28;20200;-44
2022/05/18 03:51:58;;;;;;;6.37;4.90;;;20.80;55.60;;;;;;5071559;28;20637;-44
2022/05/18 03:54:24;;;;;;;5.60;4.43;;;20.80;55.60;;;;;;5071432;28;20191;-45
2022/05/18 03:56:49;;;;;;;4.93;4.00;;;20.80;55.60;;;;;;5071397;28;20800;-45
2022/05/18 03:59:15;;;;;;;5.03;4.53;;;20.70;55.50;;;;;;5072201;28;20259;-47
2022/05/18 04:01:41;;;;;;;4.60;4.30;;;20.70;55.70;;;;;;5071540;28;20200;-46
2022/05/18 04:04:08;;;;;;;5.90;4.67;;;20.70;55.60;;;;;;5057698;28;20232;-46
2022/05/18 04:06:34;;;;;;;7.40;5.07;;;20.70;56.00;;;;;;5071318;28;20499;-45
2022/05/18 04:09:00;;;;;;;6.57;5.40;;;20.60;56.50;;;;;;5071379;28;20196;-45
2022/05/18 04:11:25;;;;;;;4.97;4.57;;;20.30;57.10;;;;;;5071233;28;20437;-45
2022/05/18 04:13:52;;;;;;;6.97;5.07;;;20.10;57.50;;;;;;5069775;28;20273;-46
2022/05/18 04:16:17;;;;;;;5.77;4.70;;;20.10;57.90;;;;;;5071041;28;20199;-45
2022/05/18 04:18:43;;;;;;;7.60;5.03;;;20.10;57.70;;;;;;5071772;28;20952;-49
2022/05/18 04:21:09;;;;;;;5.27;4.77;;;20.10;57.50;;;;;;5070937;28;20829;-49
2022/05/18 04:23:41;;;;;;;5.10;4.60;;;19.90;58.20;;;;;;5071324;28;20180;-48
2022/05/18 04:26:08;;;;;;;5.33;4.93;;;19.70;58.90;;;;;;5071056;28;20509;-44
2022/05/18 04:28:34;;;;;;;5.70;5.20;;;19.80;58.70;;;;;;5071102;28;20834;-46
2022/05/18 04:31:01;;;;;;;5.90;5.40;;;19.70;58.80;;;;;;5070751;28;20419;-44
2022/05/18 04:33:27;;;;;;;4.93;4.40;;;19.90;58.50;;;;;;5071329;28;21632;-47
2022/05/18 04:35:53;;;;;;;9.10;5.50;;;19.90;58.30;;;;;;5070787;28;20422;-48
2022/05/18 04:38:20;;;;;;;6.63;5.00;;;20.10;58.10;;;;;;5071200;28;20418;-46
2022/05/18 04:40:46;;;;;;;5.77;5.17;;;20.10;57.80;;;;;;5069182;28;20187;-45
2022/05/18 04:43:12;;;;;;;5.97;5.23;;;20.20;57.80;;;;;;5071173;28;20521;-47
2022/05/18 04:45:44;;;;;;;5.93;5.27;;;20.20;57.70;;;;;;5070255;28;20433;-46
2022/05/18 04:48:12;;;;;;;5.83;5.33;;;20.30;57.60;;;;;;5071067;28;20454;-45
2022/05/18 04:50:37;;;;;;;6.00;5.40;;;20.30;57.70;;;;;;5070349;28;20525;-46
2022/05/18 04:53:03;;;;;;;5.67;5.10;;;20.20;58.00;;;;;;5071094;28;20576;-44
2022/05/18 04:55:28;;;;;;;7.47;5.40;;;20.20;58.30;;;;;;5070039;28;20192;-49
2022/05/18 04:57:59;;;;;;;6.73;4.93;;;20.00;58.40;;;;;;5070731;28;20192;-46
2022/05/18 05:00:24;;;;;;;5.20;4.80;;;19.70;59.40;;;;;;5070338;28;20196;-45
2022/05/18 05:02:55;;;;;;;5.70;5.20;;;19.70;59.70;;;;;;5062853;28;20490;-44
2022/05/18 05:05:21;;;;;;;5.97;5.47;;;19.80;59.40;;;;;;5064928;28;20556;-48
2022/05/18 05:07:47;;;;;;;6.00;5.13;;;20.00;58.90;;;;;;5069289;28;20436;-44
2022/05/18 05:10:12;;;;;;;14.07;5.87;;;20.10;58.70;;;;;;5069887;28;21058;-47
2022/05/18 05:12:38;;;;;;;5.67;5.17;;;20.10;58.60;;;;;;5070444;28;20254;-45
2022/05/18 05:15:04;;;;;;;6.03;5.53;;;20.10;58.90;;;;;;5069636;28;20184;-45
2022/05/18 05:17:29;;;;;;;6.13;5.47;;;20.20;59.10;;;;;;5070376;28;20639;-45
2022/05/18 05:19:55;;;;;;;7.07;5.53;;;20.00;59.90;;;;;;5069822;28;20513;-46
2022/05/18 05:22:21;;;;;;;5.20;4.60;;;19.80;60.00;;;;;;5070482;28;20195;-46
2022/05/18 05:24:46;;;;;;;6.00;5.30;;;19.80;60.60;;;;;;5070043;28;20210;-44
2022/05/18 05:27:12;;;;;;;5.13;4.73;;;19.70;60.90;;;;;;5069815;28;20714;-44
2022/05/18 05:29:37;;;;;;;8.53;4.80;;;19.90;60.70;;;;;;5070258;28;20196;-47
2022/05/18 05:32:07;;;;;;;6.10;5.50;;;20.00;60.00;;;;;;5069854;28;20216;-45
2022/05/18 05:34:33;;;;;;;5.73;5.20;;;20.10;59.90;;;;;;5067942;28;20242;-44
2022/05/18 05:36:59;;;;;;;8.50;5.23;;;19.90;60.40;;;;;;5069503;28;20426;-45
2022/05/18 05:39:24;;;;;;;6.40;5.90;;;19.60;61.30;;;;;;5070232;28;20441;-44
2022/05/18 05:41:50;;;;;;;5.97;5.00;;;19.40;62.00;;;;;;5069703;28;20207;-48
2022/05/18 05:44:15;;;;;;;10.07;6.20;;;19.50;62.50;;;;;;5069972;28;20200;-44
2022/05/18 05:46:41;;;;;;;6.00;5.43;;;19.90;62.00;;;;;;5069596;28;20279;-46
2022/05/18 05:49:06;;;;;;;5.37;4.83;;;20.00;61.10;;;;;;5069895;28;20191;-45
2022/05/18 05:51:32;;;;;;;6.43;5.43;;;20.00;61.40;;;;;;5069597;28;20254;-48
2022/05/18 05:53:58;;;;;;;5.77;5.20;;;19.90;61.20;;;;;;5069672;28;20641;-46
2022/05/18 05:56:23;;;;;;;6.70;5.87;;;20.00;61.50;;;;;;5069426;28;20283;-47
2022/05/18 05:58:49;;;;;;;7.03;5.73;;;20.10;61.80;;;;;;5070089;28;20555;-45
2022/05/18 06:01:17;;;;;;;7.23;5.10;;;20.40;61.30;;;;;;5068052;28;20184;-44
2022/05/18 06:03:43;;;;;;;6.67;5.40;;;20.70;60.10;;;;;;5055877;28;20471;-45
2022/05/18 06:06:10;;;;;;;5.63;5.07;;;21.00;59.30;;;;;;5069456;28;20423;-47
2022/05/18 06:08:36;;;;;;;5.87;5.27;;;21.40;58.70;;;;;;5069793;28;20232;-47
2022/05/18 06:11:02;;;;;;;7.30;6.00;;;21.50;58.00;;;;;;5069481;28;20417;-46
2022/05/18 06:13:29;;;;;;;5.30;4.90;;;21.70;57.30;;;;;;5069175;28;20519;-47
2022/05/18 06:15:55;;;;;;;7.37;5.40;;;21.80;57.20;;;;;;5069136;28;20491;-46
2022/05/18 06:18:20;;;;;;;5.10;4.70;;;22.00;56.90;;;;;;5069775;28;20453;-45
2022/05/18 06:20:47;;;;;;;5.13;4.63;;;21.90;57.40;;;;;;5069194;28;20788;-44
2022/05/18 06:23:14;;;;;;;6.13;4.57;;;22.20;56.70;;;;;;5069720;28;20195;-45
2022/05/18 06:25:40;;;;;;;8.10;4.77;;;22.50;56.20;;;;;;5068649;28;20802;-49
2022/05/18 06:28:07;;;;;;;5.20;4.33;;;22.80;55.00;;;;;;5068073;28;21144;-46
2022/05/18 06:30:33;;;;;;;5.10;4.60;;;23.10;54.50;;;;;;5069316;28;20196;-45
2022/05/18 06:32:58;;;;;;;5.80;4.60;;;23.40;53.90;;;;;;5069435;28;20503;-46
2022/05/18 06:35:24;;;;;;;4.60;4.20;;;23.70;53.50;;;;;;5068927;28;20811;-46
2022/05/18 06:37:50;;;;;;;4.57;4.13;;;23.90;52.80;;;;;;5069536;28;20203;-45
2022/05/18 06:40:17;;;;;;;5.53;4.20;;;24.00;52.30;;;;;;5069372;28;20278;-46
2022/05/18 06:42:46;;;;;;;5.20;4.70;;;24.20;52.00;;;;;;5069385;28;20910;-44
2022/05/18 06:45:13;;;;;;;9.27;4.20;;;24.30;51.50;;;;;;5068694;28;20487;-46
2022/05/18 06:47:39;;;;;;;4.00;3.70;;;24.20;51.30;;;;;;5072260;28;20426;-45
2022/05/18 06:50:08;;;;;;;3.80;3.50;;;24.20;51.00;;;;;;5072813;28;20418;-45
2022/05/18 06:52:34;;;;;;;5.20;4.00;;;24.40;51.00;;;;;;5073224;28;20268;-44
2022/05/18 06:55:00;;;;;;;7.23;3.80;;;24.60;50.20;;;;;;5070769;28;20434;-45
2022/05/18 06:57:25;;;;;;;4.80;3.97;;;24.80;49.60;;;;;;5073086;28;20433;-48
2022/05/18 06:59:51;;;;;;;3.80;3.50;;;25.00;49.20;;;;;;5072720;28;20218;-47
2022/05/18 07:02:17;;;;;;;3.70;3.40;;;25.20;48.70;;;;;;5069731;28;20284;-49
2022/05/18 07:04:42;;;;;;;3.90;3.60;;;25.40;48.30;;;;;;5062806;28;20236;-44
2022/05/18 07:07:08;;;;;;;4.33;3.80;;;25.50;47.60;;;;;;5072346;28;20188;-46
2022/05/18 07:09:33;;;;;;;3.90;3.57;;;25.70;47.70;;;;;;5073081;28;20196;-44
2022/05/18 07:11:59;;;;;;;5.10;3.23;;;26.00;47.30;;;;;;5072374;28;20367;-48
2022/05/18 07:14:27;;;;;;;3.37;3.17;;;26.30;46.90;;;;;;5072771;28;20192;-45
2022/05/18 07:16:53;;;;;;;5.07;4.00;;;26.60;46.40;;;;;;5071962;28;20226;-49
2022/05/18 07:19:20;;;;;;;6.90;3.27;;;26.80;46.20;;;;;;5073022;28;20427;-45
2022/05/18 07:21:47;;;;;;;4.20;3.80;;;26.90;45.50;;;;;;5070824;28;20510;-47
2022/05/18 07:24:14;;;;;;;4.00;3.60;;;27.10;46.00;;;;;;5072486;28;20452;-45
2022/05/18 07:26:40;;;;;;;4.00;3.70;;;27.20;45.50;;;;;;5071727;28;20434;-46
2022/05/18 07:29:06;;;;;;;4.50;4.10;;;27.50;44.30;;;;;;5072601;28;20426;-46
2022/05/18 07:32:08;;;;;;;5.10;3.90;;;27.70;43.50;;;;;;5071919;28;20659;-45
2022/05/18 07:34:17;;;;;;;5.40;3.83;;;27.90;43.20;;;;;;5072043;28;20499;-45
2022/05/18 07:36:43;;;;;;;3.77;3.43;;;28.00;42.90;;;;;;5072246;28;20422;-46
2022/05/18 07:39:11;;;;;;;5.37;3.23;;;28.10;42.30;;;;;;5072455;28;20180;-45
2022/05/18 07:41:37;;;;;;;3.77;3.50;;;28.30;42.50;;;;;;5071846;28;20488;-45
2022/05/18 07:44:03;;;;;;;5.03;3.30;;;28.50;42.50;;;;;;5071962;28;20434;-45
2022/05/18 07:46:28;;;;;;;4.80;3.47;;;28.60;41.30;;;;;;5071864;28;20605;-45
2022/05/18 07:48:54;;;;;;;3.40;3.10;;;28.70;41.10;;;;;;5070395;28;20191;-45
2022/05/18 07:51:20;;;;;;;2.83;2.63;;;28.90;40.40;;;;;;5071626;28;20214;-46
2022/05/18 07:53:45;;;;;;;3.53;3.10;;;28.70;39.60;;;;;;5071981;28;20251;-45
2022/05/18 07:56:11;;;;;;;3.50;3.20;;;29.00;40.70;;;;;;5071851;28;20263;-45
2022/05/18 07:58:37;;;;;;;5.47;2.90;;;28.90;39.40;;;;;;5071445;28;20200;-42
2022/05/18 08:01:02;;;;;;;4.03;3.47;;;29.00;40.00;;;;;;5071615;28;20188;-46
2022/05/18 08:03:28;;;;;;;3.80;3.50;;;29.20;40.00;;;;;;5058369;28;20232;-45
2022/05/18 08:05:54;;;;;;;5.00;3.60;;;29.20;40.10;;;;;;5071267;28;20248;-45
2022/05/18 08:08:22;;;;;;;4.00;3.70;;;29.40;40.00;;;;;;5072208;28;20204;-45
2022/05/18 08:16:17;;;;;;;3.13;2.70;;;28.70;40.30;;;;;;5069557;28;20460;-45
2022/05/18 08:18:43;;;;;;;3.40;3.10;;;29.10;40.30;;;;;;5071910;28;20511;-46
2022/05/18 08:21:09;;;;;;;3.17;2.97;;;29.30;39.50;;;;;;5071269;28;20433;-46
2022/05/18 08:23:35;;;;;;;3.97;3.10;;;29.30;39.40;;;;;;5071106;28;20492;-46
2022/05/18 08:26:03;;;;;;;3.77;3.30;;;29.50;39.00;;;;;;5070900;28;20434;-46
2022/05/18 08:28:28;;;;;;;4.50;3.30;;;29.80;38.30;;;;;;5071530;28;20195;-47
2022/05/18 08:30:55;;;;;;;3.40;3.10;;;30.00;38.20;;;;;;5071007;28;20514;-45
2022/05/18 08:33:22;;;;;;;4.60;3.10;;;30.10;38.10;;;;;;5071013;28;20220;-46
2022/05/18 08:35:48;;;;;;;2.97;2.73;;;30.10;38.00;;;;;;5070739;28;20454;-45
2022/05/18 08:38:15;;;;;;;4.03;3.63;;;30.20;37.50;;;;;;5071336;28;20464;-45
2022/05/18 08:40:45;;;;;;;4.30;3.90;;;30.40;37.40;;;;;;5070714;28;20548;-45
2022/05/18 08:43:20;;;;;;;5.00;3.73;;;30.10;37.90;;;;;;5067778;28;20477;-47
2022/05/18 08:45:47;;;;;;;3.23;2.97;;;30.00;38.20;;;;;;5070393;28;20437;-46
2022/05/18 08:48:35;;;;;;;4.13;3.47;;;30.00;37.70;;;;;;5070886;28;20504;-46
2022/05/18 08:51:05;;;;;;;4.77;3.57;;;30.40;37.20;;;;;;5070415;28;20788;-45
2022/05/18 08:53:52;;;;;;;3.70;3.40;;;30.50;37.50;;;;;;5070490;28;20488;-45
2022/05/18 08:56:31;;;;;;;8.27;3.43;;;30.70;36.70;;;;;;5070460;28;20418;-47
2022/05/18 08:58:56;;;;;;;5.23;3.10;;;30.90;36.60;;;;;;5070996;28;20438;-45
2022/05/18 09:01:46;;;;;;;4.37;3.73;;;31.20;37.30;;;;;;5070411;28;20796;-47
2022/05/18 09:04:32;;;;;;;3.60;3.40;;;31.30;35.90;;;;;;5070109;28;20240;-47
2022/05/18 09:07:07;;;;;;;3.83;3.30;;;31.40;35.80;;;;;;5062568;28;20438;-43
2022/05/18 09:12:22;;;;;;;3.80;3.50;;;31.70;35.60;;;;;;5070469;28;20496;-46
2022/05/18 09:14:49;;;;;;;4.20;3.70;;;31.90;35.30;;;;;;5070375;28;20439;-45
2022/05/18 09:17:37;;;;;;;5.10;3.90;;;32.10;34.80;;;;;;5069941;28;20191;-44
2022/05/18 09:20:16;;;;;;;3.67;2.83;;;32.40;34.90;;;;;;5069812;28;20480;-46
2022/05/18 09:22:57;;;;;;;6.20;3.53;;;32.80;35.20;;;;;;5070722;28;20432;-43
2022/05/18 09:25:47;;;;;;;4.50;4.03;;;33.00;34.10;;;;;;5069510;28;20430;-44
2022/05/18 09:28:13;;;;;;;4.00;3.60;;;33.10;33.10;;;;;;5070465;28;20930;-43
2022/05/18 09:30:41;;;;;;;3.37;3.07;;;33.10;32.60;;;;;;5069812;28;20444;-46
2022/05/18 09:33:19;;;;;;;3.90;3.33;;;33.10;33.00;;;;;;5069662;28;20763;-43
2022/05/18 09:35:51;;;;;;;4.03;3.70;;;33.20;32.20;;;;;;5068376;28;20479;-43
2022/05/18 09:38:46;;;;;;;3.60;3.30;;;33.30;32.10;;;;;;5070557;28;20454;-43
2022/05/18 09:41:18;;;;;;;6.77;3.50;;;33.50;31.70;;;;;;5069558;28;20438;-43
2022/05/18 09:43:57;;;;;;;3.63;3.33;;;33.90;30.60;;;;;;5069807;28;20454;-43
2022/05/18 09:46:26;;;;;;;3.83;3.40;;;34.10;30.90;;;;;;5069415;28;20461;-43
2022/05/18 09:49:12;;;;;;;5.03;3.30;;;34.30;31.70;;;;;;5070057;28;20430;-43
2022/05/18 09:51:38;;;;;;;3.73;3.03;;;34.60;30.00;;;;;;5069381;28;20426;-43
2022/05/18 09:54:05;;;;;;;3.10;2.90;;;34.70;29.90;;;;;;5069503;28;20481;-43
2022/05/18 09:56:36;;;;;;;5.93;3.33;;;34.80;29.00;;;;;;5069546;28;20437;-43
2022/05/18 09:59:12;;;;;;;4.67;3.07;;;34.30;29.20;;;;;;5069652;28;20414;-44
2022/05/18 10:07:27;;;;;;;3.10;2.80;;;33.80;28.60;;;;;;5069553;28;20437;-43
2022/05/18 10:10:19;;;;;;;3.40;2.93;;;34.00;29.30;;;;;;5069567;28;20440;-43
2022/05/18 10:13:08;;;;;;;2.50;2.30;;;34.20;29.50;;;;;;5069708;28;20477;-43
2022/05/18 10:15:49;;;;;;;4.73;3.20;;;34.40;28.30;;;;;;5068675;28;20880;-43
2022/05/18 10:18:41;;;;;;;3.30;2.80;;;33.90;29.00;;;;;;5069857;28;20414;-43
2022/05/18 10:21:12;;;;;;;3.47;2.50;;;33.80;28.70;;;;;;5071466;28;20476;-43
2022/05/18 10:23:58;;;;;;;2.90;1.97;;;34.00;28.20;;;;;;5073604;28;20473;-43
2022/05/18 10:26:24;;;;;;;3.13;2.10;;;34.20;28.20;;;;;;5073430;28;20454;-44
2022/05/18 10:29:03;;;;;;;2.63;2.43;;;34.50;28.50;;;;;;5073234;28;20458;-45
2022/05/18 10:31:33;;;;;;;3.03;2.77;;;34.80;27.70;;;;;;5072811;28;20190;-45
2022/05/18 10:34:13;;;;;;;3.30;2.83;;;34.90;27.50;;;;;;5073144;28;20984;-43
2022/05/18 10:36:48;;;;;;;2.83;2.63;;;35.10;27.60;;;;;;5073058;28;21264;-44
2022/05/18 10:39:30;;;;;;;3.80;2.60;;;35.10;26.60;;;;;;5073556;28;20448;-43
2022/05/18 10:41:55;;;;;;;2.60;2.10;;;35.40;26.20;;;;;;5072934;28;21203;-43
2022/05/18 10:44:27;;;;;;;3.33;2.63;;;35.30;26.40;;;;;;5072870;28;20430;-43
2022/05/18 10:46:53;;;;;;;2.87;2.00;;;35.30;26.20;;;;;;5072967;28;20270;-44
2022/05/18 10:49:34;;;;;;;3.00;2.70;;;35.00;26.00;;;;;;5073129;28;20865;-44
2022/05/18 10:52:30;;;;;;;2.90;2.67;;;34.90;26.20;;;;;;5072740;28;20192;-43
2022/05/18 10:54:59;;;;;;;2.93;2.63;;;34.90;26.70;;;;;;5061876;28;20525;-44
2022/05/18 10:57:37;;;;;;;2.70;2.13;;;34.70;26.90;;;;;;5071243;28;20431;-43
2022/05/18 11:00:12;;;;;;;2.93;2.13;;;35.10;26.70;;;;;;5072574;28;20844;-45
2022/05/18 11:02:43;;;;;;;2.90;2.60;;;35.20;26.20;;;;;;5065298;28;20973;-46
2022/05/18 11:05:39;;;;;;;6.00;2.43;;;35.00;26.10;;;;;;5066046;28;20461;-46
2022/05/18 11:08:11;;;;;;;4.97;2.47;;;35.20;27.00;;;;;;5073017;28;20438;-45
2022/05/18 11:11:00;;;;;;;3.00;2.10;;;35.10;26.10;;;;;;5072452;28;20513;-50
2022/05/18 11:13:54;;;;;;;2.70;2.50;;;35.30;25.70;;;;;;5072481;28;20587;-49
2022/05/18 11:16:23;;;;;;;3.37;2.23;;;35.40;25.90;;;;;;5072470;28;20519;-48
2022/05/18 11:18:53;;;;;;;3.03;2.13;;;35.00;26.70;;;;;;5072754;28;20783;-49
2022/05/18 11:22:07;;;;;;;4.30;3.93;;;35.30;25.50;;;;;;5072505;28;20430;-46
2022/05/18 11:24:46;;;;;;;2.70;2.33;;;35.20;25.30;;;;;;5047220;28;21277;-45
2022/05/18 11:27:15;;;;;;;2.63;2.43;;;35.10;25.80;;;;;;5072216;28;20434;-47
2022/05/18 11:30:12;;;;;;;3.00;2.67;;;35.30;25.50;;;;;;5072693;28;20479;-45
2022/05/18 11:32:58;;;;;;;2.53;2.40;;;35.60;25.60;;;;;;5071212;28;21069;-44
2022/05/18 11:36:01;;;;;;;3.30;2.60;;;36.00;25.30;;;;;;5071946;28;20440;-46
2022/05/18 11:38:54;;;;;;;2.73;2.20;;;36.40;26.20;;;;;;5072526;28;20475;-48
2022/05/18 11:41:31;;;;;;;2.60;2.40;;;36.70;24.60;;;;;;5071879;28;20483;-44
2022/05/18 11:44:11;;;;;;;2.30;2.10;;;36.20;24.30;;;;;;5072257;28;20519;-47
2022/05/18 11:46:39;;;;;;;2.50;2.30;;;35.90;25.20;;;;;;5071864;28;20516;-44
2022/05/18 11:49:22;;;;;;;2.50;2.27;;;36.00;25.20;;;;;;5072312;28;20426;-47
2022/05/18 11:51:51;;;;;;;3.80;2.23;;;35.90;24.90;;;;;;5070176;28;20448;-47
2022/05/18 11:54:22;;;;;;;2.40;1.93;;;35.80;25.70;;;;;;5071719;28;20838;-44
2022/05/18 11:57:02;;;;;;;3.17;2.23;;;36.10;24.30;;;;;;5071998;28;20437;-44
2022/05/18 12:00:08;;;;;;;2.43;2.17;;;36.50;24.50;;;;;;5072248;28;20437;-45
2022/05/18 12:03:08;;;;;;;5.13;2.00;;;36.20;24.00;;;;;;5065914;28;20503;-44
2022/05/18 12:06:01;;;;;;;2.50;2.30;;;36.20;24.40;;;;;;5068506;28;20528;-46
2022/05/18 12:08:30;;;;;;;3.30;2.77;;;36.60;25.10;;;;;;5071822;28;20921;-43
2022/05/18 12:11:04;;;;;;;3.80;2.60;;;36.80;24.70;;;;;;5071291;28;20517;-48
2022/05/18 12:14:09;;;;;;;3.50;2.77;;;37.00;24.90;;;;;;5071168;28;20855;-44
2022/05/18 12:16:48;;;;;;;3.90;2.23;;;37.10;24.30;;;;;;5048732;28;20437;-44
2022/05/18 12:19:17;;;;;;;4.30;2.30;;;37.10;24.10;;;;;;5071859;28;20429;-49
2022/05/18 12:21:53;;;;;;;5.30;2.40;;;36.70;24.50;;;;;;5071250;28;20438;-43
2022/05/18 12:24:19;;;;;;;2.53;2.33;;;36.60;25.30;;;;;;5071258;28;20468;-43
2022/05/18 12:26:46;;;;;;;2.50;2.27;;;36.30;25.10;;;;;;5071271;28;20438;-45
2022/05/18 12:29:17;;;;;;;3.23;2.60;;;36.00;25.70;;;;;;5071607;28;20461;-44
2022/05/18 12:31:43;;;;;;;3.63;2.37;;;36.00;26.00;;;;;;5070848;28;20426;-45
2022/05/18 12:34:11;;;;;;;2.80;2.40;;;36.30;25.30;;;;;;5071027;28;20584;-46
2022/05/18 12:37:01;;;;;;;2.97;2.50;;;36.50;25.00;;;;;;5070567;28;20480;-47
2022/05/18 12:39:29;;;;;;;3.13;2.30;;;36.60;24.80;;;;;;5071318;28;20434;-44
2022/05/18 12:41:58;;;;;;;2.70;2.20;;;36.30;25.10;;;;;;5070698;28;20902;-44
2022/05/18 12:44:34;;;;;;;4.20;2.40;;;36.40;25.10;;;;;;5068118;28;20828;-44
2022/05/18 12:47:02;;;;;;;4.60;2.63;;;36.40;23.80;;;;;;5070331;28;20533;-44
2022/05/18 12:49:34;;;;;;;2.73;2.40;;;36.70;24.00;;;;;;5070898;28;20524;-47
2022/05/18 12:52:05;;;;;;;6.20;2.60;;;36.80;24.20;;;;;;5070283;28;20438;-48
2022/05/18 12:54:33;;;;;;;2.83;2.33;;;37.10;24.30;;;;;;5070559;28;20498;-46
2022/05/18 12:57:05;;;;;;;2.40;2.20;;;36.70;23.60;;;;;;5070234;28;20429;-44
2022/05/18 12:59:44;;;;;;;2.87;2.60;;;36.70;23.80;;;;;;5071101;28;20497;-45
2022/05/18 13:02:32;;;;;;;4.83;2.40;;;36.40;24.30;;;;;;5069961;28;20508;-47
2022/05/18 13:04:57;;;;;;;2.40;2.30;;;36.40;24.10;;;;;;5069731;28;20477;-47
2022/05/18 13:07:30;;;;;;;2.43;2.23;;;36.60;25.10;;;;;;5070530;28;20450;-49
2022/05/18 13:10:11;;;;;;;3.10;2.30;;;36.50;24.20;;;;;;5070229;28;20202;-47
2022/05/18 13:12:46;;;;;;;3.40;2.20;;;36.50;23.90;;;;;;5068586;28;20509;-47
2022/05/18 13:15:20;;;;;;;3.77;2.17;;;36.60;24.80;;;;;;5069709;28;20476;-48
2022/05/18 13:17:45;;;;;;;2.53;2.37;;;36.60;24.80;;;;;;5070679;28;20436;-48
2022/05/18 13:20:26;;;;;;;3.33;2.20;;;36.70;24.80;;;;;;5068876;28;20453;-48
2022/05/18 13:23:01;;;;;;;2.47;2.27;;;36.70;24.90;;;;;;5070119;28;20203;-48
2022/05/18 13:25:30;;;;;;;2.90;2.60;;;36.80;23.80;;;;;;5069788;28;20445;-46